Time;durP1;ratioP1;P1;durP2;ratioP2;P2;SDS_P1;SDS_P2;PMS_P1;PMS_P2;Temp;Humidity;BMP_temperature;BMP_pressure;BME280_temperature;BME280_humidity;BME280_pressure;Samples;Min_cycle;Max_cycle;Signal;HPM_P1;HPM_P2
2024/01/02 00:01:17;;;;;;;42.07;18.83;;;7.80;99.90;;;;;;4996758;28;20207;-73
2024/01/02 00:03:44;;;;;;;42.47;19.57;;;7.80;99.90;;;;;;4994443;28;20288;-73
2024/01/02 00:06:15;;;;;;;45.97;19.93;;;7.80;99.90;;;;;;5008274;28;20284;-73
2024/01/02 00:08:42;;;;;;;39.67;17.73;;;7.80;99.90;;;;;;4991320;28;20220;-73
2024/01/02 00:11:11;;;;;;;36.60;16.07;;;7.80;99.90;;;;;;5010008;28;20262;-73
2024/01/02 00:13:38;;;;;;;40.47;18.27;;;7.80;99.90;;;;;;4992910;28;20674;-73
2024/01/02 00:16:05;;;;;;;41.43;18.40;;;7.80;99.90;;;;;;5013910;28;20290;-73
2024/01/02 00:18:32;;;;;;;53.07;23.93;;;7.80;99.90;;;;;;4992828;28;20218;-73
2024/01/02 00:20:59;;;;;;;56.87;24.60;;;7.80;99.90;;;;;;5005854;28;20262;-73
2024/01/02 00:23:27;;;;;;;43.67;20.37;;;7.80;99.90;;;;;;5013133;28;20189;-73
2024/01/02 00:25:54;;;;;;;40.63;18.90;;;7.80;99.90;;;;;;5015162;28;20198;-72
2024/01/02 00:28:22;;;;;;;42.33;18.77;;;7.80;99.90;;;;;;5016049;28;20210;-70
2024/01/02 00:30:49;;;;;;;53.77;21.87;;;7.80;99.90;;;;;;5014108;28;20196;-71
2024/01/02 00:33:17;;;;;;;46.20;20.07;;;7.80;99.90;;;;;;4999844;28;20249;-71
2024/01/02 00:35:44;;;;;;;33.13;16.03;;;7.90;99.90;;;;;;5003470;28;20203;-71
2024/01/02 00:38:11;;;;;;;44.23;18.57;;;7.90;99.90;;;;;;4995342;28;20267;-71
2024/01/02 00:40:38;;;;;;;53.67;21.77;;;7.90;99.90;;;;;;4996239;28;20204;-71
2024/01/02 00:43:05;;;;;;;69.87;26.63;;;8.00;99.90;;;;;;4998793;28;20256;-72
2024/01/02 00:45:33;;;;;;;55.33;22.57;;;8.00;99.90;;;;;;5018877;28;20262;-72
2024/01/02 00:48:00;;;;;;;72.37;26.97;;;8.00;99.90;;;;;;4996180;28;20203;-72
2024/01/02 00:50:27;;;;;;;76.27;27.53;;;8.00;99.90;;;;;;4999435;28;20689;-72
2024/01/02 00:52:55;;;;;;;73.57;28.20;;;8.00;99.90;;;;;;5014391;28;20246;-72
2024/01/02 00:55:22;;;;;;;55.07;21.30;;;8.00;99.90;;;;;;5011946;28;20239;-73
2024/01/02 00:57:49;;;;;;;50.57;20.77;;;7.90;99.90;;;;;;5012004;28;20248;-73
2024/01/02 01:00:16;;;;;;;51.47;21.13;;;7.90;99.90;;;;;;4997056;28;20226;-72
2024/01/02 01:02:45;;;;;;;68.40;25.77;;;8.00;99.90;;;;;;5003840;28;20258;-73
2024/01/02 01:05:13;;;;;;;62.50;24.10;;;8.00;99.90;;;;;;4989519;28;20333;-74
2024/01/02 01:07:40;;;;;;;75.97;28.87;;;8.20;99.90;;;;;;5008662;28;20643;-73
2024/01/02 01:10:07;;;;;;;82.60;30.73;;;8.00;99.90;;;;;;4997298;28;20560;-73
2024/01/02 01:12:34;;;;;;;84.20;31.47;;;8.00;99.90;;;;;;5014938;28;20652;-73
2024/01/02 01:15:02;;;;;;;74.73;27.87;;;8.00;99.90;;;;;;4994210;28;20230;-73
2024/01/02 01:17:29;;;;;;;56.17;23.53;;;7.90;99.90;;;;;;5008172;28;20261;-73
2024/01/02 01:19:57;;;;;;;54.00;21.83;;;8.00;99.90;;;;;;5007140;28;20276;-72
2024/01/02 01:22:24;;;;;;;52.80;22.23;;;7.90;99.90;;;;;;5024754;28;20275;-73
2024/01/02 01:24:51;;;;;;;51.47;21.53;;;7.90;99.90;;;;;;5030844;28;20207;-72
2024/01/02 01:27:19;;;;;;;54.17;21.33;;;7.90;99.90;;;;;;5005171;28;20225;-74
2024/01/02 01:29:46;;;;;;;45.77;19.30;;;7.90;99.90;;;;;;4991874;28;20258;-74
2024/01/02 01:32:13;;;;;;;38.67;16.67;;;7.80;99.90;;;;;;5012902;28;20630;-74
2024/01/02 01:34:40;;;;;;;46.03;17.57;;;7.90;99.90;;;;;;5011766;28;20745;-74
2024/01/02 01:37:08;;;;;;;42.23;16.77;;;7.90;99.90;;;;;;5003419;28;20676;-73
2024/01/02 01:39:35;;;;;;;38.70;16.13;;;7.90;99.90;;;;;;4999027;28;20208;-74
2024/01/02 01:42:02;;;;;;;39.93;16.07;;;7.90;99.90;;;;;;4996954;28;20987;-75
2024/01/02 01:44:29;;;;;;;37.10;15.10;;;7.80;99.90;;;;;;4998024;28;20231;-75
2024/01/02 01:46:57;;;;;;;40.60;16.13;;;7.80;99.90;;;;;;5008920;28;20353;-75
2024/01/02 01:49:24;;;;;;;40.77;15.67;;;7.80;99.90;;;;;;4997498;28;20663;-74
2024/01/02 01:51:54;;;;;;;44.70;17.83;;;7.80;99.90;;;;;;5003011;28;20312;-74
2024/01/02 01:54:23;;;;;;;42.53;17.50;;;7.80;99.90;;;;;;5009588;28;20311;-75
2024/01/02 01:56:52;;;;;;;39.17;15.80;;;7.80;99.90;;;;;;5011290;28;20204;-75
2024/01/02 01:59:20;;;;;;;53.73;20.17;;;7.70;99.90;;;;;;5003883;28;20587;-75
2024/01/02 02:01:48;;;;;;;88.10;30.23;;;7.70;99.90;;;;;;4997277;28;20986;-74
2024/01/02 02:04:16;;;;;;;69.50;26.20;;;7.60;99.90;;;;;;5010134;28;20194;-74
2024/01/02 02:06:43;;;;;;;72.53;26.60;;;7.70;99.90;;;;;;4992642;28;20671;-74
2024/01/02 02:09:10;;;;;;;62.30;24.77;;;7.70;99.90;;;;;;5012739;28;20192;-75
2024/01/02 02:11:42;;;;;;;68.77;26.43;;;7.70;99.90;;;;;;4995765;28;20237;-74
2024/01/02 02:14:10;;;;;;;50.67;21.83;;;7.70;99.90;;;;;;5012718;28;22090;-74
2024/01/02 02:16:37;;;;;;;47.03;19.90;;;7.70;99.90;;;;;;4996079;28;20203;-73
2024/01/02 02:19:04;;;;;;;62.37;25.13;;;7.70;99.90;;;;;;4995074;28;20326;-73
2024/01/02 02:21:33;;;;;;;59.90;25.23;;;7.70;99.90;;;;;;5013277;28;20196;-73
2024/01/02 02:24:02;;;;;;;51.87;21.67;;;7.70;99.90;;;;;;5006893;28;20626;-73
2024/01/02 02:26:29;;;;;;;46.93;21.63;;;7.70;99.90;;;;;;4993357;28;20614;-73
2024/01/02 02:28:56;;;;;;;37.97;17.17;;;7.70;99.90;;;;;;5006723;28;20266;-73
2024/01/02 02:31:24;;;;;;;34.50;16.03;;;7.70;99.90;;;;;;5003326;28;20207;-74
2024/01/02 02:33:51;;;;;;;35.67;15.93;;;7.70;99.90;;;;;;4994060;28;20207;-72
2024/01/02 02:36:18;;;;;;;33.10;14.60;;;7.70;99.90;;;;;;4993001;28;20214;-73
2024/01/02 02:38:45;;;;;;;26.30;11.93;;;7.70;99.90;;;;;;5009592;28;20274;-74
2024/01/02 02:41:13;;;;;;;22.87;11.77;;;7.60;99.90;;;;;;4993608;28;20579;-74
2024/01/02 02:43:40;;;;;;;26.90;12.67;;;7.60;99.90;;;;;;5011380;28;20208;-74
2024/01/02 02:46:07;;;;;;;45.53;18.37;;;7.70;99.90;;;;;;4995653;28;20199;-75
2024/01/02 02:48:34;;;;;;;54.73;21.07;;;7.70;99.90;;;;;;4998548;28;20249;-75
2024/01/02 02:51:03;;;;;;;47.80;18.93;;;7.80;99.90;;;;;;4982789;28;20207;-74
2024/01/02 02:53:31;;;;;;;44.03;18.27;;;7.80;99.90;;;;;;4980851;28;20191;-75
2024/01/02 02:55:58;;;;;;;39.50;16.43;;;7.70;99.90;;;;;;4978367;28;20219;-75
2024/01/02 02:58:26;;;;;;;39.83;15.27;;;7.70;99.90;;;;;;4983200;28;20227;-75
2024/01/02 03:00:53;;;;;;;57.70;21.63;;;7.70;99.90;;;;;;4996555;28;20218;-75
2024/01/02 03:03:21;;;;;;;53.00;19.80;;;7.70;99.90;;;;;;5000323;28;20664;-74
2024/01/02 03:05:48;;;;;;;68.53;23.10;;;7.70;99.90;;;;;;4997815;28;20197;-75
2024/01/02 03:08:15;;;;;;;63.40;22.70;;;7.70;99.90;;;;;;4984438;28;20679;-75
2024/01/02 03:10:44;;;;;;;54.07;19.30;;;7.70;99.90;;;;;;4997791;28;20200;-75
2024/01/02 03:13:11;;;;;;;39.37;16.47;;;7.70;99.90;;;;;;4995620;28;20294;-74
2024/01/02 03:15:40;;;;;;;50.80;19.83;;;7.70;99.90;;;;;;4985393;28;20302;-74
2024/01/02 03:18:10;;;;;;;42.10;16.70;;;7.70;99.90;;;;;;4982865;28;20265;-74
2024/01/02 03:20:37;;;;;;;37.70;14.23;;;7.70;99.90;;;;;;4993634;28;20659;-74
2024/01/02 03:23:04;;;;;;;30.83;12.70;;;7.70;99.90;;;;;;4996642;28;20204;-74
2024/01/02 03:25:31;;;;;;;55.03;18.27;;;7.70;99.90;;;;;;4974769;28;20209;-73
2024/01/02 03:27:58;;;;;;;69.97;25.00;;;7.60;99.90;;;;;;4979827;28;20669;-73
2024/01/02 03:30:25;;;;;;;58.70;21.37;;;7.60;99.90;;;;;;4979211;28;20245;-74
2024/01/02 03:32:54;;;;;;;51.97;18.60;;;7.60;99.90;;;;;;5004827;28;20241;-73
2024/01/02 03:35:22;;;;;;;63.90;22.17;;;7.60;99.90;;;;;;4991203;28;20632;-75
2024/01/02 03:37:49;;;;;;;55.97;19.27;;;7.60;99.90;;;;;;4997339;28;20200;-75
2024/01/02 03:40:16;;;;;;;58.43;19.90;;;7.60;99.90;;;;;;4991125;28;20202;-74
2024/01/02 03:42:43;;;;;;;50.33;17.93;;;7.60;99.90;;;;;;4989893;28;20202;-74
2024/01/02 03:45:10;;;;;;;40.43;14.77;;;7.60;99.90;;;;;;5007395;28;20232;-75
2024/01/02 03:47:38;;;;;;;39.37;14.57;;;7.60;99.90;;;;;;5011018;28;20199;-75
2024/01/02 03:50:07;;;;;;;46.53;16.83;;;7.60;99.90;;;;;;5007434;28;20199;-75
2024/01/02 03:52:35;;;;;;;43.70;15.67;;;7.60;99.90;;;;;;5002732;28;20203;-75
2024/01/02 03:55:02;;;;;;;39.33;13.00;;;7.60;99.90;;;;;;5010333;28;20211;-75
2024/01/02 03:57:29;;;;;;;32.57;11.50;;;7.50;99.90;;;;;;5010985;28;20606;-73
2024/01/02 03:59:56;;;;;;;38.93;13.30;;;7.50;99.90;;;;;;4995544;28;20219;-72
2024/01/02 04:02:23;;;;;;;35.80;12.30;;;7.50;99.90;;;;;;4990824;28;20229;-72
2024/01/02 04:04:50;;;;;;;32.27;11.77;;;7.50;99.90;;;;;;5009164;28;20202;-71
2024/01/02 04:07:19;;;;;;;26.10;9.50;;;7.50;99.90;;;;;;5012268;28;20667;-72
2024/01/02 04:09:46;;;;;;;36.50;12.67;;;7.50;99.90;;;;;;4988991;28;20340;-72
2024/01/02 04:12:13;;;;;;;29.67;10.10;;;7.50;99.90;;;;;;5013020;28;20211;-72
2024/01/02 04:14:40;;;;;;;32.30;12.47;;;7.50;99.90;;;;;;4993991;28;20594;-74
2024/01/02 04:17:07;;;;;;;28.60;10.47;;;7.50;99.90;;;;;;4991515;28;20198;-74
2024/01/02 04:19:34;;;;;;;30.03;10.77;;;7.40;99.90;;;;;;5007945;28;20234;-75
2024/01/02 04:22:02;;;;;;;32.40;11.33;;;7.40;99.90;;;;;;4990821;28;20699;-74
2024/01/02 04:24:30;;;;;;;23.87;9.50;;;7.40;99.90;;;;;;4993266;28;20200;-74
2024/01/02 04:26:57;;;;;;;23.57;7.97;;;7.40;99.90;;;;;;5002313;28;20258;-74
2024/01/02 04:29:24;;;;;;;17.27;7.60;;;7.30;99.90;;;;;;5009953;28;20199;-74
2024/01/02 04:31:51;;;;;;;14.63;6.47;;;7.30;99.90;;;;;;4991842;28;20626;-73
2024/01/02 04:34:18;;;;;;;12.10;6.10;;;7.40;99.90;;;;;;4994555;28;20631;-73
2024/01/02 04:36:45;;;;;;;14.43;5.83;;;7.40;99.90;;;;;;5007361;28;20306;-73
2024/01/02 04:39:12;;;;;;;16.47;7.07;;;7.40;99.90;;;;;;5000367;28;20200;-73
2024/01/02 04:41:41;;;;;;;20.53;8.37;;;7.40;99.90;;;;;;5008168;28;20203;-73
2024/01/02 04:44:08;;;;;;;21.93;8.77;;;7.40;99.90;;;;;;5009984;28;20746;-73
2024/01/02 04:46:38;;;;;;;16.63;6.87;;;7.40;99.90;;;;;;4986096;28;20226;-73
2024/01/02 04:49:05;;;;;;;16.07;6.70;;;7.40;99.90;;;;;;4991973;28;20218;-73
2024/01/02 04:51:32;;;;;;;15.90;6.67;;;7.30;99.90;;;;;;4992214;28;20207;-74
2024/01/02 04:53:59;;;;;;;18.07;7.07;;;7.40;99.90;;;;;;5006004;28;20582;-76
2024/01/02 04:56:26;;;;;;;24.07;9.87;;;7.40;99.90;;;;;;4992300;28;20689;-74
2024/01/02 04:58:57;;;;;;;26.93;10.50;;;7.40;99.90;;;;;;4998437;28;20559;-77
2024/01/02 05:01:24;;;;;;;25.17;10.07;;;7.40;99.90;;;;;;5011508;28;20253;-78
2024/01/02 05:03:51;;;;;;;25.00;10.13;;;7.40;99.90;;;;;;5016386;28;20230;-72
2024/01/02 05:06:18;;;;;;;27.63;10.73;;;7.30;99.90;;;;;;4990107;28;20198;-72
2024/01/02 05:08:45;;;;;;;20.17;9.13;;;7.40;99.90;;;;;;5023581;28;20223;-72
2024/01/02 05:11:11;;;;;;;16.47;7.53;;;7.30;99.90;;;;;;5012509;28;20226;-72
2024/01/02 05:13:38;;;;;;;19.23;8.23;;;7.30;99.90;;;;;;5006263;28;20199;-72
2024/01/02 05:16:08;;;;;;;17.10;7.27;;;7.20;99.90;;;;;;4996718;28;20528;-72
2024/01/02 05:18:36;;;;;;;22.53;8.93;;;7.20;99.90;;;;;;5002479;28;20196;-72
2024/01/02 05:21:03;;;;;;;22.00;9.57;;;7.20;99.90;;;;;;5007752;28;20595;-72
2024/01/02 05:23:30;;;;;;;19.87;8.10;;;7.20;99.90;;;;;;5021786;28;20563;-72
2024/01/02 05:25:57;;;;;;;20.50;7.83;;;7.20;99.90;;;;;;5007256;28;20195;-72
2024/01/02 05:28:24;;;;;;;18.80;8.30;;;7.10;99.90;;;;;;5007529;28;20230;-72
2024/01/02 05:30:51;;;;;;;21.27;7.70;;;7.10;99.90;;;;;;4994075;28;20664;-72
2024/01/02 05:33:20;;;;;;;16.13;6.87;;;7.10;99.90;;;;;;5011096;28;20749;-72
2024/01/02 05:35:47;;;;;;;20.47;7.80;;;7.10;99.90;;;;;;4991661;28;20215;-73
2024/01/02 05:38:17;;;;;;;15.23;6.17;;;7.10;99.90;;;;;;5015188;28;20202;-72
2024/01/02 05:40:44;;;;;;;14.17;6.77;;;7.10;99.90;;;;;;5007522;28;20203;-73
2024/01/02 05:43:11;;;;;;;11.07;4.97;;;7.10;99.90;;;;;;4997195;28;20250;-74
2024/01/02 05:45:38;;;;;;;16.33;6.33;;;7.10;99.90;;;;;;5001656;28;20243;-73
2024/01/02 05:48:06;;;;;;;10.77;5.13;;;7.10;99.90;;;;;;5008035;28;20199;-73
2024/01/02 05:50:34;;;;;;;11.50;4.97;;;7.10;99.90;;;;;;5012055;28;20195;-73
2024/01/02 05:53:01;;;;;;;8.57;4.63;;;7.10;99.90;;;;;;4996210;28;20249;-73
2024/01/02 05:55:28;;;;;;;9.03;4.47;;;7.10;99.90;;;;;;5007279;28;20222;-74
2024/01/02 05:57:55;;;;;;;13.60;6.27;;;7.10;99.90;;;;;;5012011;28;20245;-73
2024/01/02 06:00:23;;;;;;;13.47;5.90;;;7.10;99.90;;;;;;5021054;28;20638;-75
2024/01/02 06:02:52;;;;;;;10.10;5.20;;;7.10;99.90;;;;;;5016236;28;20249;-75
2024/01/02 06:05:19;;;;;;;13.40;5.93;;;7.10;99.90;;;;;;5021011;28;20187;-75
2024/01/02 06:07:50;;;;;;;8.03;4.10;;;7.20;99.90;;;;;;4988647;28;20214;-74
2024/01/02 06:10:17;;;;;;;10.93;4.80;;;7.10;99.90;;;;;;5012166;28;20562;-74
2024/01/02 06:12:44;;;;;;;9.27;4.43;;;7.10;99.90;;;;;;5018071;28;20245;-74
2024/01/02 06:15:11;;;;;;;6.47;4.30;;;7.10;99.90;;;;;;4996762;28;20211;-73
2024/01/02 06:17:38;;;;;;;6.10;4.27;;;7.10;99.90;;;;;;5017866;28;20190;-72
2024/01/02 06:20:08;;;;;;;8.37;4.67;;;7.10;99.90;;;;;;5016215;28;20578;-73
2024/01/02 06:22:35;;;;;;;9.17;4.40;;;7.40;99.90;;;;;;4990288;28;20705;-73
2024/01/02 06:25:08;;;;;;;7.23;4.43;;;7.10;99.90;;;;;;5007899;28;20666;-73
2024/01/02 06:27:35;;;;;;;8.40;4.30;;;7.20;99.90;;;;;;5011252;28;20572;-73
2024/01/02 06:30:03;;;;;;;9.30;4.73;;;7.20;99.90;;;;;;5014577;28;20244;-75
2024/01/02 06:32:32;;;;;;;7.10;4.23;;;7.20;99.90;;;;;;5012331;28;20195;-71
2024/01/02 06:34:59;;;;;;;6.80;3.77;;;7.20;99.90;;;;;;4999128;28;20627;-71
2024/01/02 06:37:27;;;;;;;5.73;4.03;;;7.10;99.90;;;;;;5008580;28;20630;-71
2024/01/02 06:39:54;;;;;;;8.57;4.63;;;7.10;99.90;;;;;;4997885;28;20285;-71
2024/01/02 06:42:23;;;;;;;8.77;4.40;;;7.20;99.90;;;;;;5013696;28;20490;-73
2024/01/02 06:44:50;;;;;;;6.03;4.07;;;7.20;99.90;;;;;;4999058;28;20230;-73
2024/01/02 06:47:17;;;;;;;5.93;3.53;;;7.20;99.90;;;;;;5011633;28;20195;-73
2024/01/02 06:49:47;;;;;;;5.53;3.50;;;7.20;99.90;;;;;;4994292;28;20206;-73
2024/01/02 06:52:15;;;;;;;6.77;3.63;;;8.20;99.90;;;;;;4995171;28;20214;-73
2024/01/02 06:54:43;;;;;;;5.00;3.47;;;7.10;99.90;;;;;;5013495;28;20199;-73
2024/01/02 06:57:10;;;;;;;7.30;3.90;;;7.20;99.90;;;;;;5012992;28;20220;-73
2024/01/02 06:59:38;;;;;;;6.43;3.53;;;7.20;99.90;;;;;;5011468;28;20230;-73
2024/01/02 07:02:06;;;;;;;8.67;4.07;;;7.20;99.90;;;;;;5011447;28;20194;-73
2024/01/02 07:04:33;;;;;;;5.00;3.30;;;7.20;99.90;;;;;;4999507;28;20203;-71
2024/01/02 07:07:00;;;;;;;10.10;4.80;;;7.20;99.90;;;;;;5009334;28;20197;-72
2024/01/02 07:09:27;;;;;;;8.13;4.47;;;7.20;99.90;;;;;;5009126;28;20207;-71
2024/01/02 07:11:54;;;;;;;8.53;4.23;;;7.20;99.90;;;;;;5011104;28;20257;-71
2024/01/02 07:14:21;;;;;;;10.00;5.03;;;7.20;99.90;;;;;;5010946;28;20341;-71
2024/01/02 07:16:50;;;;;;;14.03;6.57;;;7.30;99.90;;;;;;5010548;28;20579;-72
2024/01/02 07:19:17;;;;;;;9.93;5.60;;;7.30;99.90;;;;;;5000116;28;20274;-72
2024/01/02 07:21:44;;;;;;;9.20;4.60;;;7.30;99.90;;;;;;4993563;28;20305;-72
2024/01/02 07:24:11;;;;;;;8.53;4.87;;;7.20;99.90;;;;;;5010885;28;20203;-72
2024/01/02 07:26:39;;;;;;;7.80;4.30;;;7.20;99.90;;;;;;5007591;28;20191;-72
2024/01/02 07:29:06;;;;;;;5.57;3.50;;;7.20;99.90;;;;;;5010997;28;20206;-72
2024/01/02 07:31:35;;;;;;;4.57;3.30;;;7.20;99.90;;;;;;5015358;28;20200;-73
2024/01/02 07:34:05;;;;;;;5.00;3.63;;;7.20;99.90;;;;;;5016759;28;20575;-74
2024/01/02 07:36:32;;;;;;;5.03;3.17;;;7.20;99.90;;;;;;4992216;28;20223;-74
2024/01/02 07:39:03;;;;;;;4.17;3.10;;;7.20;99.90;;;;;;5009391;28;20200;-74
2024/01/02 07:41:30;;;;;;;5.53;3.50;;;7.20;99.90;;;;;;5006957;28;20195;-74
2024/01/02 07:44:00;;;;;;;5.23;3.57;;;7.30;99.90;;;;;;5009484;28;20305;-74
2024/01/02 07:46:28;;;;;;;5.57;3.90;;;7.30;99.90;;;;;;5010500;28;20195;-74
2024/01/02 07:48:55;;;;;;;6.50;4.20;;;7.30;99.90;;;;;;4995139;28;20667;-74
2024/01/02 07:51:24;;;;;;;9.57;4.47;;;7.30;99.90;;;;;;5010701;28;20198;-74
2024/01/02 07:53:51;;;;;;;7.27;4.70;;;7.30;99.90;;;;;;5011891;28;20238;-74
2024/01/02 07:56:19;;;;;;;8.67;4.10;;;7.20;99.90;;;;;;4995769;28;20417;-71
2024/01/02 07:58:46;;;;;;;10.70;6.47;;;7.20;99.90;;;;;;5013907;28;20220;-71
2024/01/02 08:01:14;;;;;;;7.60;5.07;;;7.20;99.90;;;;;;4998228;28;20558;-71
2024/01/02 08:03:41;;;;;;;7.83;4.73;;;7.20;99.90;;;;;;5010561;28;20202;-74
2024/01/02 08:06:08;;;;;;;6.70;3.83;;;7.20;99.90;;;;;;5008872;28;20205;-73
2024/01/02 08:08:36;;;;;;;4.53;3.70;;;7.10;99.90;;;;;;5007212;28;20226;-74
2024/01/02 08:11:08;;;;;;;4.60;3.17;;;7.10;99.90;;;;;;5013615;28;20245;-73
2024/01/02 08:13:35;;;;;;;4.57;3.37;;;7.10;99.90;;;;;;4994331;28;20646;-74
2024/01/02 08:16:03;;;;;;;4.43;3.30;;;7.10;99.90;;;;;;4998269;28;20582;-73
2024/01/02 08:18:30;;;;;;;6.13;3.80;;;7.10;99.90;;;;;;4991266;28;20254;-72
2024/01/02 08:20:58;;;;;;;6.30;4.13;;;7.10;99.90;;;;;;4984074;28;20203;-74
2024/01/02 08:23:25;;;;;;;6.00;3.90;;;7.10;99.90;;;;;;5001479;28;20306;-73
2024/01/02 08:25:54;;;;;;;3.77;3.37;;;7.10;99.90;;;;;;5002129;28;20192;-74
2024/01/02 08:28:23;;;;;;;3.37;2.90;;;7.10;99.90;;;;;;4993357;28;20299;-74
2024/01/02 08:30:50;;;;;;;3.67;3.27;;;7.00;99.90;;;;;;5011729;28;20276;-72
2024/01/02 08:33:17;;;;;;;3.87;3.07;;;7.00;99.90;;;;;;5015861;28;20206;-73
2024/01/02 08:35:45;;;;;;;3.40;2.90;;;7.00;99.90;;;;;;4996873;28;20227;-72
2024/01/02 08:38:12;;;;;;;2.77;2.30;;;7.00;99.90;;;;;;5013993;28;20209;-73
2024/01/02 08:40:39;;;;;;;3.60;3.00;;;7.00;99.90;;;;;;5013485;28;20231;-73
2024/01/02 08:43:07;;;;;;;6.00;3.00;;;7.00;99.90;;;;;;4993257;28;20287;-74
2024/01/02 08:45:35;;;;;;;2.37;2.17;;;7.00;99.90;;;;;;5011863;28;20316;-75
2024/01/02 08:48:03;;;;;;;3.77;3.43;;;7.00;99.90;;;;;;5013456;28;20282;-74
2024/01/02 08:50:30;;;;;;;6.67;4.63;;;7.00;99.90;;;;;;4994769;28;20195;-73
2024/01/02 08:52:58;;;;;;;4.50;3.70;;;7.00;99.90;;;;;;5013465;28;20242;-74
2024/01/02 08:55:28;;;;;;;4.00;3.23;;;7.00;99.90;;;;;;4994770;28;20203;-73
2024/01/02 08:57:55;;;;;;;4.07;3.60;;;7.00;99.90;;;;;;5018384;28;20217;-73
2024/01/02 09:00:29;;;;;;;3.40;3.03;;;7.00;99.90;;;;;;5016407;28;20581;-73
2024/01/02 09:02:56;;;;;;;3.20;2.90;;;7.00;99.90;;;;;;5024698;28;20198;-73
2024/01/02 09:05:27;;;;;;;2.73;2.50;;;7.00;99.90;;;;;;5005056;28;20210;-73
2024/01/02 09:07:55;;;;;;;3.50;2.40;;;7.00;99.90;;;;;;4996464;28;20299;-74
2024/01/02 09:10:25;;;;;;;5.83;4.53;;;7.00;99.90;;;;;;5011020;28;20219;-73
2024/01/02 09:12:52;;;;;;;8.10;5.10;;;7.00;99.90;;;;;;5015467;28;20198;-73
2024/01/02 09:15:22;;;;;;;6.93;4.87;;;7.00;99.90;;;;;;5010379;28;20199;-73
2024/01/02 09:17:51;;;;;;;4.27;3.30;;;7.00;99.90;;;;;;5018380;28;20223;-73
2024/01/02 09:20:18;;;;;;;3.83;3.13;;;7.00;99.90;;;;;;5030586;28;20190;-73
2024/01/02 09:22:45;;;;;;;3.67;3.00;;;7.00;99.90;;;;;;5011297;28;20543;-73
2024/01/02 09:25:15;;;;;;;3.73;3.00;;;7.00;99.90;;;;;;5013521;28;20275;-73
2024/01/02 09:27:44;;;;;;;4.97;3.37;;;7.00;99.90;;;;;;5013330;28;20273;-73
2024/01/02 09:30:15;;;;;;;3.30;3.00;;;7.10;99.90;;;;;;4996273;28;20616;-73
2024/01/02 09:32:42;;;;;;;4.90;3.50;;;7.10;99.90;;;;;;4998661;28;20208;-73
2024/01/02 09:35:11;;;;;;;5.30;3.60;;;7.20;99.90;;;;;;5020634;28;20207;-74
2024/01/02 09:37:38;;;;;;;5.57;3.43;;;7.20;99.90;;;;;;4992937;28;20297;-74
2024/01/02 09:40:19;;;;;;;5.50;4.03;;;7.20;99.90;;;;;;5015150;28;20231;-73
2024/01/02 09:42:56;;;;;;;5.83;4.17;;;7.10;99.90;;;;;;4993898;28;20203;-73
2024/01/02 09:45:32;;;;;;;6.17;4.00;;;7.20;99.90;;;;;;5014148;28;20233;-73
2024/01/02 09:48:17;;;;;;;5.93;3.80;;;7.20;99.90;;;;;;4995399;28;20397;-73
2024/01/02 09:50:57;;;;;;;3.90;3.20;;;7.20;99.90;;;;;;5003545;28;20199;-72
2024/01/02 09:53:53;;;;;;;3.60;3.03;;;7.10;99.90;;;;;;4995003;28;20195;-73
2024/01/02 09:56:26;;;;;;;6.30;3.57;;;7.00;99.90;;;;;;5001411;28;20322;-73
2024/01/02 09:59:05;;;;;;;4.77;2.93;;;7.00;99.90;;;;;;4990361;28;20207;-71
2024/01/02 10:01:41;;;;;;;7.17;4.67;;;7.00;99.90;;;;;;5015478;28;20256;-72
2024/01/02 10:04:32;;;;;;;8.37;4.87;;;7.00;99.90;;;;;;4993210;28;20205;-74
2024/01/02 10:07:22;;;;;;;5.50;3.63;;;7.00;99.90;;;;;;5001554;28;20234;-74
2024/01/02 10:10:07;;;;;;;8.73;5.70;;;7.00;99.90;;;;;;4995951;28;20198;-74
2024/01/02 10:12:44;;;;;;;9.10;5.60;;;7.00;99.90;;;;;;5005460;28;20892;-74
2024/01/02 10:15:20;;;;;;;8.87;5.20;;;7.00;99.90;;;;;;5007198;28;20195;-73
2024/01/02 10:17:57;;;;;;;11.03;6.30;;;7.00;99.90;;;;;;4994456;28;20249;-71
2024/01/02 10:20:38;;;;;;;11.33;5.60;;;6.90;99.90;;;;;;4988359;28;20210;-71
2024/01/02 10:23:18;;;;;;;8.90;4.70;;;6.90;99.90;;;;;;5007929;28;20184;-71
2024/01/02 10:25:53;;;;;;;7.57;4.00;;;6.90;99.90;;;;;;5007529;28;20195;-71
2024/01/02 10:28:25;;;;;;;6.27;3.70;;;6.90;99.90;;;;;;5001933;28;20528;-71
2024/01/02 10:30:59;;;;;;;5.77;3.63;;;6.80;99.90;;;;;;5012300;28;20195;-70
2024/01/02 10:33:32;;;;;;;9.93;4.33;;;6.80;99.90;;;;;;5013777;28;20198;-72
2024/01/02 10:36:03;;;;;;;5.93;3.90;;;6.80;99.90;;;;;;4991780;28;20617;-73
2024/01/02 10:38:42;;;;;;;4.13;3.13;;;6.80;99.90;;;;;;5008700;28;20206;-72
2024/01/02 10:41:22;;;;;;;6.23;3.87;;;6.80;99.90;;;;;;5015553;28;20209;-70
2024/01/02 10:43:57;;;;;;;8.33;4.70;;;6.80;99.90;;;;;;5012601;28;20195;-72
2024/01/02 10:46:31;;;;;;;6.80;4.27;;;6.70;99.90;;;;;;5011941;28;20187;-76
2024/01/02 10:49:09;;;;;;;6.23;3.77;;;6.70;99.90;;;;;;4988341;28;20207;-74
2024/01/02 10:51:40;;;;;;;7.10;4.40;;;7.10;99.90;;;;;;5010740;28;20191;-71
2024/01/02 10:54:13;;;;;;;10.10;5.67;;;6.70;99.90;;;;;;5005448;28;20206;-71
2024/01/02 10:56:42;;;;;;;8.60;5.00;;;6.70;99.90;;;;;;5009911;28;20281;-71
2024/01/02 10:59:22;;;;;;;8.73;5.00;;;6.70;99.90;;;;;;5010118;28;20203;-72
2024/01/02 11:01:52;;;;;;;7.20;4.70;;;6.70;99.90;;;;;;5010862;28;20273;-72
2024/01/02 11:04:25;;;;;;;5.97;4.00;;;6.70;99.90;;;;;;5019583;28;20288;-71
2024/01/02 11:06:57;;;;;;;6.13;3.50;;;6.60;99.90;;;;;;5008827;28;20195;-73
2024/01/02 11:09:44;;;;;;;4.57;2.97;;;6.60;99.90;;;;;;5014816;28;20196;-74
2024/01/02 11:12:13;;;;;;;5.63;3.40;;;6.60;99.90;;;;;;5010432;28;20206;-73
2024/01/02 11:14:43;;;;;;;10.00;5.10;;;6.60;99.90;;;;;;5008725;28;20222;-72
2024/01/02 11:17:13;;;;;;;8.03;4.80;;;6.50;99.90;;;;;;5011166;28;20216;-73
2024/01/02 11:19:45;;;;;;;10.43;5.40;;;6.50;99.90;;;;;;5012294;28;20234;-75
2024/01/02 11:22:15;;;;;;;7.97;5.20;;;6.50;99.90;;;;;;5012890;28;20265;-72
2024/01/02 11:24:53;;;;;;;8.93;5.13;;;6.50;99.90;;;;;;5013865;28;20206;-76
2024/01/02 11:27:23;;;;;;;11.17;5.60;;;7.10;99.90;;;;;;4987561;28;20211;-74
2024/01/02 11:29:54;;;;;;;6.63;4.40;;;6.50;99.90;;;;;;5006506;28;20210;-73
2024/01/02 11:32:32;;;;;;;11.80;5.57;;;6.50;99.90;;;;;;5013852;28;20206;-73
2024/01/02 11:35:05;;;;;;;7.13;4.47;;;6.50;99.90;;;;;;4989515;28;20205;-73
2024/01/02 11:37:37;;;;;;;9.67;5.30;;;6.50;99.90;;;;;;4998595;28;20914;-71
2024/01/02 11:40:20;;;;;;;7.70;4.33;;;6.60;99.90;;;;;;5008674;28;20298;-72
2024/01/02 11:42:57;;;;;;;7.83;4.53;;;6.60;99.90;;;;;;5008625;28;20203;-72
2024/01/02 11:45:28;;;;;;;4.00;3.20;;;6.60;99.90;;;;;;4991021;28;20238;-74
2024/01/02 11:48:17;;;;;;;5.07;3.80;;;6.60;99.90;;;;;;4993115;28;20207;-72
2024/01/02 11:50:52;;;;;;;5.93;4.13;;;6.70;99.90;;;;;;5011428;28;20246;-72
2024/01/02 11:53:36;;;;;;;5.47;4.17;;;6.60;99.90;;;;;;5007639;28;20194;-72
2024/01/02 11:56:13;;;;;;;6.17;4.10;;;6.70;99.90;;;;;;4998769;28;20191;-74
2024/01/02 11:58:49;;;;;;;8.13;4.10;;;6.70;99.90;;;;;;4988034;28;20275;-73
2024/01/02 12:01:19;;;;;;;5.67;3.80;;;6.70;99.90;;;;;;4986272;28;20204;-70
2024/01/02 12:04:05;;;;;;;7.83;3.90;;;6.70;99.90;;;;;;4998656;28;20219;-71
2024/01/02 12:06:43;;;;;;;7.23;4.10;;;6.60;99.90;;;;;;5000745;28;20199;-70
2024/01/02 12:09:17;;;;;;;8.97;5.53;;;6.70;99.90;;;;;;5005860;28;20195;-71
2024/01/02 12:11:49;;;;;;;12.23;6.53;;;6.70;99.90;;;;;;5004227;28;20202;-71
2024/01/02 12:14:36;;;;;;;13.70;6.63;;;6.70;99.90;;;;;;5008544;28;20684;-71
2024/01/02 12:17:08;;;;;;;8.17;4.87;;;6.70;99.90;;;;;;5008243;28;20215;-71
2024/01/02 12:19:39;;;;;;;8.17;4.97;;;6.70;99.90;;;;;;4990476;28;20696;-71
2024/01/02 12:22:07;;;;;;;7.73;4.40;;;6.70;99.90;;;;;;4992238;28;20209;-71
2024/01/02 12:24:36;;;;;;;5.67;4.20;;;6.70;99.90;;;;;;4991831;28;20229;-71
2024/01/02 12:27:08;;;;;;;6.97;4.10;;;6.70;99.90;;;;;;4991473;28;20211;-70
2024/01/02 12:29:43;;;;;;;7.50;4.13;;;6.70;99.90;;;;;;4990422;28;20362;-71
2024/01/02 12:32:17;;;;;;;5.00;3.70;;;6.70;99.90;;;;;;4985781;28;20268;-70
2024/01/02 12:34:53;;;;;;;10.53;5.87;;;6.70;99.90;;;;;;5009926;28;20194;-71
2024/01/02 12:37:30;;;;;;;20.07;6.63;;;6.70;99.90;;;;;;4990117;28;20215;-70
2024/01/02 12:40:03;;;;;;;10.67;5.50;;;6.70;99.90;;;;;;5001363;28;20228;-70
2024/01/02 12:42:37;;;;;;;12.33;5.97;;;6.70;99.90;;;;;;5006838;28;20263;-71
2024/01/02 12:45:07;;;;;;;11.03;5.97;;;6.70;99.90;;;;;;5009268;28;20235;-71
2024/01/02 12:47:43;;;;;;;15.37;8.30;;;6.70;99.90;;;;;;5006782;28;20417;-71
2024/01/02 12:50:13;;;;;;;19.43;10.37;;;6.80;99.90;;;;;;5001111;28;20224;-72
2024/01/02 12:52:44;;;;;;;18.03;9.47;;;6.80;99.90;;;;;;5008679;28;20191;-71
2024/01/02 12:55:14;;;;;;;21.03;10.63;;;6.80;99.90;;;;;;5006436;28;20679;-72
2024/01/02 12:57:43;;;;;;;28.93;11.77;;;6.80;99.90;;;;;;4997785;28;20309;-72
2024/01/02 13:00:13;;;;;;;20.73;9.83;;;6.80;99.90;;;;;;5001348;28;20195;-72